sensor_id;sensor_type;location;lat;lon;timestamp;P1;durP1;ratioP1;P2;durP2;ratioP2
40781;SDS011;26493;51.938;7.626;2022-11-03T00:01:53;19.83;;;8.82;;
40781;SDS011;26493;51.938;7.626;2022-11-03T00:04:19;19.70;;;9.63;;
40781;SDS011;26493;51.938;7.626;2022-11-03T00:06:47;20.45;;;8.82;;
40781;SDS011;26493;51.938;7.626;2022-11-03T00:09:14;20.50;;;8.73;;
40781;SDS011;26493;51.938;7.626;2022-11-03T00:11:41;18.58;;;8.40;;
40781;SDS011;26493;51.938;7.626;2022-11-03T00:14:07;17.77;;;8.15;;
40781;SDS011;26493;51.938;7.626;2022-11-03T00:16:34;20.52;;;9.18;;
40781;SDS011;26493;51.938;7.626;2022-11-03T00:19:00;22.65;;;9.10;;
40781;SDS011;26493;51.938;7.626;2022-11-03T00:21:26;22.20;;;8.70;;
40781;SDS011;26493;51.938;7.626;2022-11-03T00:23:53;16.73;;;8.80;;
40781;SDS011;26493;51.938;7.626;2022-11-03T00:26:19;16.80;;;8.35;;
40781;SDS011;26493;51.938;7.626;2022-11-03T00:28:46;18.55;;;8.60;;
40781;SDS011;26493;51.938;7.626;2022-11-03T00:31:15;19.77;;;8.43;;
40781;SDS011;26493;51.938;7.626;2022-11-03T00:33:41;17.42;;;8.57;;
40781;SDS011;26493;51.938;7.626;2022-11-03T00:36:09;21.45;;;8.85;;
40781;SDS011;26493;51.938;7.626;2022-11-03T00:38:36;19.55;;;8.60;;
40781;SDS011;26493;51.938;7.626;2022-11-03T00:41:03;19.02;;;8.45;;
40781;SDS011;26493;51.938;7.626;2022-11-03T00:43:30;19.02;;;7.97;;
40781;SDS011;26493;51.938;7.626;2022-11-03T00:45:57;17.63;;;8.63;;
40781;SDS011;26493;51.938;7.626;2022-11-03T00:48:23;23.02;;;9.38;;
40781;SDS011;26493;51.938;7.626;2022-11-03T00:51:12;17.05;;;8.45;;
40781;SDS011;26493;51.938;7.626;2022-11-03T00:53:39;20.17;;;8.90;;
40781;SDS011;26493;51.938;7.626;2022-11-03T00:56:06;16.17;;;7.85;;
40781;SDS011;26493;51.938;7.626;2022-11-03T00:58:32;22.42;;;9.07;;
40781;SDS011;26493;51.938;7.626;2022-11-03T01:00:59;19.83;;;8.65;;
40781;SDS011;26493;51.938;7.626;2022-11-03T01:03:25;20.20;;;8.38;;
40781;SDS011;26493;51.938;7.626;2022-11-03T01:05:51;18.98;;;9.15;;
40781;SDS011;26493;51.938;7.626;2022-11-03T01:08:36;21.52;;;8.90;;
40781;SDS011;26493;51.938;7.626;2022-11-03T01:11:13;22.80;;;9.07;;
40781;SDS011;26493;51.938;7.626;2022-11-03T01:13:58;17.88;;;8.75;;
40781;SDS011;26493;51.938;7.626;2022-11-03T01:16:24;18.10;;;8.90;;
40781;SDS011;26493;51.938;7.626;2022-11-03T01:18:50;20.23;;;8.88;;
40781;SDS011;26493;51.938;7.626;2022-11-03T01:21:16;22.13;;;9.43;;
40781;SDS011;26493;51.938;7.626;2022-11-03T01:23:42;18.65;;;8.82;;
40781;SDS011;26493;51.938;7.626;2022-11-03T01:26:09;20.05;;;9.30;;
40781;SDS011;26493;51.938;7.626;2022-11-03T01:28:36;21.25;;;8.93;;
40781;SDS011;26493;51.938;7.626;2022-11-03T01:31:06;17.95;;;8.63;;
40781;SDS011;26493;51.938;7.626;2022-11-03T01:33:32;17.80;;;8.88;;
40781;SDS011;26493;51.938;7.626;2022-11-03T01:35:58;18.20;;;8.68;;
40781;SDS011;26493;51.938;7.626;2022-11-03T01:38:24;18.25;;;8.40;;
40781;SDS011;26493;51.938;7.626;2022-11-03T01:40:50;18.50;;;8.85;;
40781;SDS011;26493;51.938;7.626;2022-11-03T01:43:17;19.17;;;9.07;;
40781;SDS011;26493;51.938;7.626;2022-11-03T01:45:43;20.13;;;9.30;;
40781;SDS011;26493;51.938;7.626;2022-11-03T01:48:10;21.90;;;9.25;;
40781;SDS011;26493;51.938;7.626;2022-11-03T01:50:37;23.30;;;9.40;;
40781;SDS011;26493;51.938;7.626;2022-11-03T01:53:05;23.92;;;9.60;;
40781;SDS011;26493;51.938;7.626;2022-11-03T01:55:31;24.35;;;10.15;;
40781;SDS011;26493;51.938;7.626;2022-11-03T02:00:26;16.95;;;8.40;;
40781;SDS011;26493;51.938;7.626;2022-11-03T02:02:52;17.67;;;8.77;;
40781;SDS011;26493;51.938;7.626;2022-11-03T02:05:18;20.42;;;9.63;;
40781;SDS011;26493;51.938;7.626;2022-11-03T02:10:11;19.88;;;9.13;;
40781;SDS011;26493;51.938;7.626;2022-11-03T02:12:37;18.80;;;8.98;;
40781;SDS011;26493;51.938;7.626;2022-11-03T02:15:07;20.88;;;9.45;;
40781;SDS011;26493;51.938;7.626;2022-11-03T02:17:34;21.23;;;8.70;;
40781;SDS011;26493;51.938;7.626;2022-11-03T02:20:02;19.08;;;9.00;;
40781;SDS011;26493;51.938;7.626;2022-11-03T02:25:05;21.67;;;9.30;;
40781;SDS011;26493;51.938;7.626;2022-11-03T02:27:35;18.33;;;8.60;;
40781;SDS011;26493;51.938;7.626;2022-11-03T02:30:01;17.88;;;8.80;;
40781;SDS011;26493;51.938;7.626;2022-11-03T02:32:51;22.27;;;10.43;;
40781;SDS011;26493;51.938;7.626;2022-11-03T02:35:19;19.45;;;9.20;;
40781;SDS011;26493;51.938;7.626;2022-11-03T02:37:47;20.05;;;9.05;;
40781;SDS011;26493;51.938;7.626;2022-11-03T02:40:15;19.08;;;9.43;;
40781;SDS011;26493;51.938;7.626;2022-11-03T02:42:44;20.48;;;10.05;;
40781;SDS011;26493;51.938;7.626;2022-11-03T02:45:11;20.60;;;9.55;;
40781;SDS011;26493;51.938;7.626;2022-11-03T02:47:38;22.23;;;9.57;;
40781;SDS011;26493;51.938;7.626;2022-11-03T02:50:06;20.63;;;9.35;;
40781;SDS011;26493;51.938;7.626;2022-11-03T02:52:41;17.88;;;9.02;;
40781;SDS011;26493;51.938;7.626;2022-11-03T02:57:57;20.90;;;9.73;;
40781;SDS011;26493;51.938;7.626;2022-11-03T03:00:25;20.35;;;8.63;;
40781;SDS011;26493;51.938;7.626;2022-11-03T03:02:54;19.20;;;8.88;;
40781;SDS011;26493;51.938;7.626;2022-11-03T03:05:23;16.10;;;8.63;;
40781;SDS011;26493;51.938;7.626;2022-11-03T03:07:51;18.55;;;8.73;;
40781;SDS011;26493;51.938;7.626;2022-11-03T03:10:23;17.83;;;8.85;;
40781;SDS011;26493;51.938;7.626;2022-11-03T03:12:51;19.90;;;9.60;;
40781;SDS011;26493;51.938;7.626;2022-11-03T03:15:19;20.85;;;10.15;;
40781;SDS011;26493;51.938;7.626;2022-11-03T03:17:49;20.63;;;8.40;;
40781;SDS011;26493;51.938;7.626;2022-11-03T03:20:25;21.60;;;8.50;;
40781;SDS011;26493;51.938;7.626;2022-11-03T03:22:57;16.98;;;8.75;;
40781;SDS011;26493;51.938;7.626;2022-11-03T03:27:58;17.25;;;8.57;;
40781;SDS011;26493;51.938;7.626;2022-11-03T03:32:51;18.95;;;9.85;;
40781;SDS011;26493;51.938;7.626;2022-11-03T03:35:19;16.77;;;8.57;;
40781;SDS011;26493;51.938;7.626;2022-11-03T03:37:47;19.13;;;8.93;;
40781;SDS011;26493;51.938;7.626;2022-11-03T03:40:18;17.98;;;8.73;;
40781;SDS011;26493;51.938;7.626;2022-11-03T03:42:45;19.92;;;9.18;;
40781;SDS011;26493;51.938;7.626;2022-11-03T03:45:12;23.10;;;9.77;;
40781;SDS011;26493;51.938;7.626;2022-11-03T03:47:38;19.17;;;8.70;;
40781;SDS011;26493;51.938;7.626;2022-11-03T03:50:04;16.63;;;8.48;;
40781;SDS011;26493;51.938;7.626;2022-11-03T03:52:32;17.77;;;8.85;;
40781;SDS011;26493;51.938;7.626;2022-11-03T03:54:58;21.10;;;8.73;;
40781;SDS011;26493;51.938;7.626;2022-11-03T03:57:24;24.65;;;9.70;;
40781;SDS011;26493;51.938;7.626;2022-11-03T03:59:52;20.20;;;8.55;;
40781;SDS011;26493;51.938;7.626;2022-11-03T04:02:18;21.55;;;8.93;;
40781;SDS011;26493;51.938;7.626;2022-11-03T04:04:44;19.15;;;9.20;;
40781;SDS011;26493;51.938;7.626;2022-11-03T04:07:10;20.35;;;9.00;;
40781;SDS011;26493;51.938;7.626;2022-11-03T04:09:55;17.88;;;8.82;;
40781;SDS011;26493;51.938;7.626;2022-11-03T04:12:21;19.20;;;8.60;;
40781;SDS011;26493;51.938;7.626;2022-11-03T04:15:08;21.50;;;8.43;;
40781;SDS011;26493;51.938;7.626;2022-11-03T04:17:53;21.67;;;8.80;;
40781;SDS011;26493;51.938;7.626;2022-11-03T04:20:37;22.50;;;9.05;;
40781;SDS011;26493;51.938;7.626;2022-11-03T04:23:22;18.38;;;8.65;;
40781;SDS011;26493;51.938;7.626;2022-11-03T04:25:49;22.25;;;8.93;;
40781;SDS011;26493;51.938;7.626;2022-11-03T04:28:16;20.25;;;8.85;;
40781;SDS011;26493;51.938;7.626;2022-11-03T04:30:42;22.08;;;8.57;;
40781;SDS011;26493;51.938;7.626;2022-11-03T04:33:12;18.15;;;8.80;;
40781;SDS011;26493;51.938;7.626;2022-11-03T04:35:40;20.15;;;8.82;;
40781;SDS011;26493;51.938;7.626;2022-11-03T04:38:17;19.40;;;9.38;;
40781;SDS011;26493;51.938;7.626;2022-11-03T04:40:45;18.05;;;8.70;;
40781;SDS011;26493;51.938;7.626;2022-11-03T04:43:15;16.90;;;8.57;;
40781;SDS011;26493;51.938;7.626;2022-11-03T04:45:42;23.52;;;9.68;;
40781;SDS011;26493;51.938;7.626;2022-11-03T04:48:12;18.83;;;9.05;;
40781;SDS011;26493;51.938;7.626;2022-11-03T04:50:39;17.65;;;8.63;;
40781;SDS011;26493;51.938;7.626;2022-11-03T04:53:09;18.55;;;8.98;;
40781;SDS011;26493;51.938;7.626;2022-11-03T04:55:40;19.38;;;8.80;;
40781;SDS011;26493;51.938;7.626;2022-11-03T04:58:11;21.02;;;9.13;;
40781;SDS011;26493;51.938;7.626;2022-11-03T05:00:40;22.15;;;8.70;;
40781;SDS011;26493;51.938;7.626;2022-11-03T05:03:07;18.35;;;8.85;;
40781;SDS011;26493;51.938;7.626;2022-11-03T05:05:37;18.92;;;8.75;;
40781;SDS011;26493;51.938;7.626;2022-11-03T05:08:04;23.08;;;9.00;;
40781;SDS011;26493;51.938;7.626;2022-11-03T05:10:30;17.55;;;9.10;;
40781;SDS011;26493;51.938;7.626;2022-11-03T05:12:56;18.52;;;8.95;;
40781;SDS011;26493;51.938;7.626;2022-11-03T05:15:29;20.52;;;9.68;;
40781;SDS011;26493;51.938;7.626;2022-11-03T05:17:57;17.35;;;9.13;;
40781;SDS011;26493;51.938;7.626;2022-11-03T05:20:36;16.95;;;8.57;;
40781;SDS011;26493;51.938;7.626;2022-11-03T05:23:08;19.83;;;9.00;;
40781;SDS011;26493;51.938;7.626;2022-11-03T05:33:25;17.83;;;8.68;;
40781;SDS011;26493;51.938;7.626;2022-11-03T05:35:51;20.25;;;8.98;;
40781;SDS011;26493;51.938;7.626;2022-11-03T05:38:18;20.73;;;10.05;;
40781;SDS011;26493;51.938;7.626;2022-11-03T05:40:44;20.70;;;9.15;;
40781;SDS011;26493;51.938;7.626;2022-11-03T05:43:11;25.10;;;12.93;;
40781;SDS011;26493;51.938;7.626;2022-11-03T05:45:38;18.27;;;9.18;;
40781;SDS011;26493;51.938;7.626;2022-11-03T05:48:12;19.88;;;9.18;;
40781;SDS011;26493;51.938;7.626;2022-11-03T05:50:41;21.33;;;9.60;;
40781;SDS011;26493;51.938;7.626;2022-11-03T05:55:52;19.00;;;8.88;;
40781;SDS011;26493;51.938;7.626;2022-11-03T06:00:58;19.08;;;8.68;;
40781;SDS011;26493;51.938;7.626;2022-11-03T06:03:28;23.92;;;9.20;;
40781;SDS011;26493;51.938;7.626;2022-11-03T06:05:54;21.75;;;10.40;;
40781;SDS011;26493;51.938;7.626;2022-11-03T06:08:22;16.70;;;9.10;;
40781;SDS011;26493;51.938;7.626;2022-11-03T06:10:50;21.40;;;9.68;;
40781;SDS011;26493;51.938;7.626;2022-11-03T06:13:20;17.30;;;8.70;;
40781;SDS011;26493;51.938;7.626;2022-11-03T06:15:47;18.35;;;9.00;;
40781;SDS011;26493;51.938;7.626;2022-11-03T06:18:20;27.80;;;10.05;;
40781;SDS011;26493;51.938;7.626;2022-11-03T06:20:49;21.42;;;9.95;;
40781;SDS011;26493;51.938;7.626;2022-11-03T06:23:16;25.77;;;10.48;;
40781;SDS011;26493;51.938;7.626;2022-11-03T06:25:43;21.15;;;10.55;;
40781;SDS011;26493;51.938;7.626;2022-11-03T06:28:10;17.42;;;8.90;;
40781;SDS011;26493;51.938;7.626;2022-11-03T06:30:39;21.02;;;10.00;;
40781;SDS011;26493;51.938;7.626;2022-11-03T06:33:26;19.35;;;8.95;;
40781;SDS011;26493;51.938;7.626;2022-11-03T06:35:58;22.83;;;9.13;;
40781;SDS011;26493;51.938;7.626;2022-11-03T06:38:25;18.80;;;9.48;;
40781;SDS011;26493;51.938;7.626;2022-11-03T06:40:53;18.00;;;9.38;;
40781;SDS011;26493;51.938;7.626;2022-11-03T06:45:52;17.58;;;9.32;;
40781;SDS011;26493;51.938;7.626;2022-11-03T06:48:20;18.65;;;9.10;;
40781;SDS011;26493;51.938;7.626;2022-11-03T06:50:46;19.02;;;9.43;;
40781;SDS011;26493;51.938;7.626;2022-11-03T06:53:12;20.45;;;10.90;;
40781;SDS011;26493;51.938;7.626;2022-11-03T06:55:44;19.90;;;9.60;;
40781;SDS011;26493;51.938;7.626;2022-11-03T06:58:33;16.98;;;9.13;;
40781;SDS011;26493;51.938;7.626;2022-11-03T07:00:57;17.85;;;9.20;;
40781;SDS011;26493;51.938;7.626;2022-11-03T07:03:25;19.13;;;9.43;;
40781;SDS011;26493;51.938;7.626;2022-11-03T07:05:55;17.73;;;8.80;;
40781;SDS011;26493;51.938;7.626;2022-11-03T07:08:31;19.55;;;9.52;;
40781;SDS011;26493;51.938;7.626;2022-11-03T07:11:00;22.92;;;9.38;;
40781;SDS011;26493;51.938;7.626;2022-11-03T07:13:28;20.80;;;9.70;;
40781;SDS011;26493;51.938;7.626;2022-11-03T07:18:26;21.77;;;9.15;;
40781;SDS011;26493;51.938;7.626;2022-11-03T07:20:52;17.85;;;9.00;;
40781;SDS011;26493;51.938;7.626;2022-11-03T07:23:21;26.23;;;9.85;;
40781;SDS011;26493;51.938;7.626;2022-11-03T07:25:51;18.85;;;10.05;;
40781;SDS011;26493;51.938;7.626;2022-11-03T07:28:18;20.40;;;8.85;;
40781;SDS011;26493;51.938;7.626;2022-11-03T07:30:45;18.80;;;9.32;;
40781;SDS011;26493;51.938;7.626;2022-11-03T07:33:29;20.33;;;9.57;;
40781;SDS011;26493;51.938;7.626;2022-11-03T07:35:56;25.50;;;9.43;;
40781;SDS011;26493;51.938;7.626;2022-11-03T07:38:23;18.17;;;8.63;;
40781;SDS011;26493;51.938;7.626;2022-11-03T07:40:50;21.20;;;10.13;;
40781;SDS011;26493;51.938;7.626;2022-11-03T07:43:18;28.25;;;9.48;;
40781;SDS011;26493;51.938;7.626;2022-11-03T07:45:49;19.90;;;9.30;;
40781;SDS011;26493;51.938;7.626;2022-11-03T07:50:42;18.77;;;9.57;;
40781;SDS011;26493;51.938;7.626;2022-11-03T07:53:13;20.90;;;10.13;;
40781;SDS011;26493;51.938;7.626;2022-11-03T07:55:39;18.80;;;9.13;;
40781;SDS011;26493;51.938;7.626;2022-11-03T07:58:13;20.20;;;10.50;;
40781;SDS011;26493;51.938;7.626;2022-11-03T08:00:43;18.88;;;10.05;;
40781;SDS011;26493;51.938;7.626;2022-11-03T08:03:12;18.77;;;9.50;;
40781;SDS011;26493;51.938;7.626;2022-11-03T08:05:42;19.02;;;9.77;;
40781;SDS011;26493;51.938;7.626;2022-11-03T08:08:08;17.70;;;9.30;;
40781;SDS011;26493;51.938;7.626;2022-11-03T08:10:35;18.60;;;9.52;;
40781;SDS011;26493;51.938;7.626;2022-11-03T08:13:01;19.73;;;9.60;;
40781;SDS011;26493;51.938;7.626;2022-11-03T08:15:27;17.73;;;9.10;;
40781;SDS011;26493;51.938;7.626;2022-11-03T08:17:53;21.38;;;10.15;;
40781;SDS011;26493;51.938;7.626;2022-11-03T08:20:22;21.63;;;9.23;;
40781;SDS011;26493;51.938;7.626;2022-11-03T08:22:48;19.20;;;9.50;;
40781;SDS011;26493;51.938;7.626;2022-11-03T08:25:14;17.88;;;9.68;;
40781;SDS011;26493;51.938;7.626;2022-11-03T08:27:40;20.33;;;9.52;;
40781;SDS011;26493;51.938;7.626;2022-11-03T08:30:06;18.33;;;9.32;;
40781;SDS011;26493;51.938;7.626;2022-11-03T08:32:34;19.77;;;9.68;;
40781;SDS011;26493;51.938;7.626;2022-11-03T08:34:59;20.25;;;9.50;;
40781;SDS011;26493;51.938;7.626;2022-11-03T08:37:25;17.95;;;9.05;;
40781;SDS011;26493;51.938;7.626;2022-11-03T08:39:51;20.00;;;9.35;;
40781;SDS011;26493;51.938;7.626;2022-11-03T08:42:17;17.65;;;9.07;;
40781;SDS011;26493;51.938;7.626;2022-11-03T08:44:43;17.60;;;9.80;;
40781;SDS011;26493;51.938;7.626;2022-11-03T08:47:09;20.00;;;9.75;;
40781;SDS011;26493;51.938;7.626;2022-11-03T08:49:35;19.98;;;9.70;;
40781;SDS011;26493;51.938;7.626;2022-11-03T08:52:02;18.27;;;9.75;;
40781;SDS011;26493;51.938;7.626;2022-11-03T08:54:27;20.20;;;9.45;;
40781;SDS011;26493;51.938;7.626;2022-11-03T08:56:53;21.08;;;10.02;;
40781;SDS011;26493;51.938;7.626;2022-11-03T08:59:19;23.38;;;10.20;;
40781;SDS011;26493;51.938;7.626;2022-11-03T09:01:45;20.02;;;9.95;;
40781;SDS011;26493;51.938;7.626;2022-11-03T09:04:12;19.23;;;9.20;;
40781;SDS011;26493;51.938;7.626;2022-11-03T09:06:37;20.42;;;9.05;;
40781;SDS011;26493;51.938;7.626;2022-11-03T09:09:05;22.00;;;9.48;;
40781;SDS011;26493;51.938;7.626;2022-11-03T09:11:31;20.23;;;10.38;;
40781;SDS011;26493;51.938;7.626;2022-11-03T09:13:57;16.70;;;9.23;;
40781;SDS011;26493;51.938;7.626;2022-11-03T09:16:23;21.05;;;9.43;;
40781;SDS011;26493;51.938;7.626;2022-11-03T09:18:49;22.85;;;9.90;;
40781;SDS011;26493;51.938;7.626;2022-11-03T09:21:15;19.00;;;9.80;;
40781;SDS011;26493;51.938;7.626;2022-11-03T09:23:42;18.60;;;9.15;;
40781;SDS011;26493;51.938;7.626;2022-11-03T09:26:08;22.45;;;9.63;;
40781;SDS011;26493;51.938;7.626;2022-11-03T09:28:34;22.42;;;9.90;;
40781;SDS011;26493;51.938;7.626;2022-11-03T09:31:00;19.10;;;10.23;;
40781;SDS011;26493;51.938;7.626;2022-11-03T09:33:26;21.23;;;10.23;;
40781;SDS011;26493;51.938;7.626;2022-11-03T09:35:52;20.60;;;11.95;;
40781;SDS011;26493;51.938;7.626;2022-11-03T09:38:18;20.25;;;10.05;;
40781;SDS011;26493;51.938;7.626;2022-11-03T09:40:44;16.67;;;8.90;;
40781;SDS011;26493;51.938;7.626;2022-11-03T09:43:10;19.08;;;9.07;;
40781;SDS011;26493;51.938;7.626;2022-11-03T09:45:39;20.10;;;8.82;;
40781;SDS011;26493;51.938;7.626;2022-11-03T09:48:08;20.73;;;9.45;;
40781;SDS011;26493;51.938;7.626;2022-11-03T09:50:34;19.40;;;9.23;;
40781;SDS011;26493;51.938;7.626;2022-11-03T09:53:01;20.13;;;9.10;;
40781;SDS011;26493;51.938;7.626;2022-11-03T09:55:27;19.92;;;9.02;;
40781;SDS011;26493;51.938;7.626;2022-11-03T09:57:54;18.63;;;9.23;;
40781;SDS011;26493;51.938;7.626;2022-11-03T10:02:48;18.25;;;8.85;;
40781;SDS011;26493;51.938;7.626;2022-11-03T10:05:19;17.83;;;9.25;;
40781;SDS011;26493;51.938;7.626;2022-11-03T10:07:46;20.48;;;9.43;;
40781;SDS011;26493;51.938;7.626;2022-11-03T10:10:16;17.67;;;9.27;;
40781;SDS011;26493;51.938;7.626;2022-11-03T10:12:43;19.20;;;9.15;;
40781;SDS011;26493;51.938;7.626;2022-11-03T10:15:13;16.98;;;9.13;;
40781;SDS011;26493;51.938;7.626;2022-11-03T10:17:40;19.10;;;9.55;;
40781;SDS011;26493;51.938;7.626;2022-11-03T10:20:09;19.67;;;10.05;;
40781;SDS011;26493;51.938;7.626;2022-11-03T10:22:35;21.95;;;11.68;;
40781;SDS011;26493;51.938;7.626;2022-11-03T10:27:46;18.10;;;10.02;;
40781;SDS011;26493;51.938;7.626;2022-11-03T10:30:12;17.83;;;9.82;;
40781;SDS011;26493;51.938;7.626;2022-11-03T10:32:38;20.15;;;9.70;;
40781;SDS011;26493;51.938;7.626;2022-11-03T10:37:50;19.40;;;9.80;;
40781;SDS011;26493;51.938;7.626;2022-11-03T10:40:32;19.83;;;10.20;;
40781;SDS011;26493;51.938;7.626;2022-11-03T10:42:59;18.40;;;9.45;;
40781;SDS011;26493;51.938;7.626;2022-11-03T10:45:25;17.77;;;9.57;;
40781;SDS011;26493;51.938;7.626;2022-11-03T10:47:58;21.00;;;10.80;;
40781;SDS011;26493;51.938;7.626;2022-11-03T10:50:25;19.20;;;10.50;;
40781;SDS011;26493;51.938;7.626;2022-11-03T10:52:52;16.85;;;9.93;;
40781;SDS011;26493;51.938;7.626;2022-11-03T10:55:18;18.60;;;10.63;;
40781;SDS011;26493;51.938;7.626;2022-11-03T10:57:45;19.75;;;9.90;;
40781;SDS011;26493;51.938;7.626;2022-11-03T11:00:12;18.77;;;10.15;;
40781;SDS011;26493;51.938;7.626;2022-11-03T11:02:39;20.50;;;9.93;;
40781;SDS011;26493;51.938;7.626;2022-11-03T11:05:19;16.70;;;9.90;;
40781;SDS011;26493;51.938;7.626;2022-11-03T11:07:45;17.52;;;10.00;;
40781;SDS011;26493;51.938;7.626;2022-11-03T11:10:13;21.23;;;11.10;;
40781;SDS011;26493;51.938;7.626;2022-11-03T11:13:00;16.65;;;10.00;;
40781;SDS011;26493;51.938;7.626;2022-11-03T11:18:01;17.45;;;10.15;;
40781;SDS011;26493;51.938;7.626;2022-11-03T11:22:54;21.85;;;11.00;;
40781;SDS011;26493;51.938;7.626;2022-11-03T11:25:20;18.50;;;10.40;;
40781;SDS011;26493;51.938;7.626;2022-11-03T11:37:42;18.05;;;10.93;;
40781;SDS011;26493;51.938;7.626;2022-11-03T11:48:13;18.48;;;10.25;;
40781;SDS011;26493;51.938;7.626;2022-11-03T11:50:41;20.23;;;10.63;;
40781;SDS011;26493;51.938;7.626;2022-11-03T11:53:11;17.92;;;10.45;;
40781;SDS011;26493;51.938;7.626;2022-11-03T12:00:55;16.95;;;10.30;;
40781;SDS011;26493;51.938;7.626;2022-11-03T12:03:23;21.38;;;10.68;;
40781;SDS011;26493;51.938;7.626;2022-11-03T12:05:50;19.67;;;10.98;;
40781;SDS011;26493;51.938;7.626;2022-11-03T12:08:16;18.65;;;11.13;;
40781;SDS011;26493;51.938;7.626;2022-11-03T12:10:50;17.77;;;9.93;;
40781;SDS011;26493;51.938;7.626;2022-11-03T12:16:28;21.15;;;10.38;;
40781;SDS011;26493;51.938;7.626;2022-11-03T12:18:55;20.50;;;11.05;;
40781;SDS011;26493;51.938;7.626;2022-11-03T12:24:24;19.38;;;11.52;;
40781;SDS011;26493;51.938;7.626;2022-11-03T12:26:51;19.55;;;11.95;;
40781;SDS011;26493;51.938;7.626;2022-11-03T12:29:17;18.25;;;11.43;;
40781;SDS011;26493;51.938;7.626;2022-11-03T12:31:43;20.17;;;12.20;;
40781;SDS011;26493;51.938;7.626;2022-11-03T12:34:09;20.42;;;12.32;;
40781;SDS011;26493;51.938;7.626;2022-11-03T12:36:35;19.02;;;11.90;;
40781;SDS011;26493;51.938;7.626;2022-11-03T12:39:01;22.00;;;12.05;;
40781;SDS011;26493;51.938;7.626;2022-11-03T12:41:27;19.02;;;12.60;;
40781;SDS011;26493;51.938;7.626;2022-11-03T12:43:53;19.73;;;12.25;;
40781;SDS011;26493;51.938;7.626;2022-11-03T12:46:20;18.63;;;12.00;;
40781;SDS011;26493;51.938;7.626;2022-11-03T12:48:47;19.00;;;12.40;;
40781;SDS011;26493;51.938;7.626;2022-11-03T12:51:14;18.60;;;12.27;;
40781;SDS011;26493;51.938;7.626;2022-11-03T12:53:40;18.70;;;12.30;;
40781;SDS011;26493;51.938;7.626;2022-11-03T12:56:06;20.13;;;12.10;;
40781;SDS011;26493;51.938;7.626;2022-11-03T12:58:33;19.10;;;11.80;;
40781;SDS011;26493;51.938;7.626;2022-11-03T13:00:59;18.30;;;11.02;;
40781;SDS011;26493;51.938;7.626;2022-11-03T13:03:26;15.90;;;11.20;;
40781;SDS011;26493;51.938;7.626;2022-11-03T13:05:52;20.55;;;12.38;;
40781;SDS011;26493;51.938;7.626;2022-11-03T13:08:18;20.17;;;12.13;;
40781;SDS011;26493;51.938;7.626;2022-11-03T13:10:44;17.83;;;10.77;;
40781;SDS011;26493;51.938;7.626;2022-11-03T13:13:10;18.63;;;11.60;;
40781;SDS011;26493;51.938;7.626;2022-11-03T13:15:36;17.38;;;10.82;;
40781;SDS011;26493;51.938;7.626;2022-11-03T13:18:02;18.65;;;12.00;;
40781;SDS011;26493;51.938;7.626;2022-11-03T13:20:32;19.42;;;11.55;;
40781;SDS011;26493;51.938;7.626;2022-11-03T13:22:58;19.30;;;11.85;;
40781;SDS011;26493;51.938;7.626;2022-11-03T13:25:24;19.08;;;11.18;;
40781;SDS011;26493;51.938;7.626;2022-11-03T13:27:52;20.07;;;12.07;;
40781;SDS011;26493;51.938;7.626;2022-11-03T13:30:25;19.85;;;11.90;;
40781;SDS011;26493;51.938;7.626;2022-11-03T13:32:51;18.48;;;11.10;;
40781;SDS011;26493;51.938;7.626;2022-11-03T13:35:18;17.67;;;11.80;;
40781;SDS011;26493;51.938;7.626;2022-11-03T13:37:44;18.95;;;11.90;;
40781;SDS011;26493;51.938;7.626;2022-11-03T13:40:13;17.70;;;11.38;;
40781;SDS011;26493;51.938;7.626;2022-11-03T13:42:40;16.88;;;11.52;;
40781;SDS011;26493;51.938;7.626;2022-11-03T13:45:07;17.45;;;11.30;;
40781;SDS011;26493;51.938;7.626;2022-11-03T13:47:33;17.90;;;10.85;;
40781;SDS011;26493;51.938;7.626;2022-11-03T13:50:00;18.38;;;11.75;;
40781;SDS011;26493;51.938;7.626;2022-11-03T13:52:26;18.48;;;11.50;;
40781;SDS011;26493;51.938;7.626;2022-11-03T13:54:52;17.02;;;11.57;;
40781;SDS011;26493;51.938;7.626;2022-11-03T13:57:19;16.85;;;11.85;;
40781;SDS011;26493;51.938;7.626;2022-11-03T13:59:45;19.15;;;12.20;;
40781;SDS011;26493;51.938;7.626;2022-11-03T14:02:11;18.40;;;11.00;;
40781;SDS011;26493;51.938;7.626;2022-11-03T14:04:38;18.10;;;11.77;;
40781;SDS011;26493;51.938;7.626;2022-11-03T14:07:04;17.65;;;11.13;;
40781;SDS011;26493;51.938;7.626;2022-11-03T14:09:31;18.25;;;11.20;;
40781;SDS011;26493;51.938;7.626;2022-11-03T14:11:57;17.67;;;11.80;;
40781;SDS011;26493;51.938;7.626;2022-11-03T14:14:41;18.48;;;11.57;;
40781;SDS011;26493;51.938;7.626;2022-11-03T14:17:07;17.45;;;10.95;;
40781;SDS011;26493;51.938;7.626;2022-11-03T14:19:33;17.17;;;11.40;;
40781;SDS011;26493;51.938;7.626;2022-11-03T14:21:59;17.52;;;10.73;;
40781;SDS011;26493;51.938;7.626;2022-11-03T14:24:26;17.58;;;11.40;;
40781;SDS011;26493;51.938;7.626;2022-11-03T14:26:52;16.88;;;11.52;;
40781;SDS011;26493;51.938;7.626;2022-11-03T14:29:18;17.40;;;11.48;;
40781;SDS011;26493;51.938;7.626;2022-11-03T14:31:44;16.48;;;11.15;;
40781;SDS011;26493;51.938;7.626;2022-11-03T14:34:10;18.38;;;12.27;;
40781;SDS011;26493;51.938;7.626;2022-11-03T14:36:36;17.38;;;11.60;;
40781;SDS011;26493;51.938;7.626;2022-11-03T14:39:02;17.58;;;11.45;;
40781;SDS011;26493;51.938;7.626;2022-11-03T14:41:28;16.48;;;11.02;;
40781;SDS011;26493;51.938;7.626;2022-11-03T14:44:12;16.42;;;10.65;;
40781;SDS011;26493;51.938;7.626;2022-11-03T14:46:38;16.13;;;10.52;;
40781;SDS011;26493;51.938;7.626;2022-11-03T14:49:04;18.13;;;11.20;;
40781;SDS011;26493;51.938;7.626;2022-11-03T14:51:30;17.20;;;10.57;;
40781;SDS011;26493;51.938;7.626;2022-11-03T14:53:56;19.13;;;11.40;;
40781;SDS011;26493;51.938;7.626;2022-11-03T14:56:23;17.63;;;10.90;;
40781;SDS011;26493;51.938;7.626;2022-11-03T14:58:49;16.05;;;10.20;;
40781;SDS011;26493;51.938;7.626;2022-11-03T15:01:18;17.85;;;10.57;;
40781;SDS011;26493;51.938;7.626;2022-11-03T15:03:44;19.98;;;11.13;;
40781;SDS011;26493;51.938;7.626;2022-11-03T15:06:10;17.42;;;9.98;;
40781;SDS011;26493;51.938;7.626;2022-11-03T15:08:37;18.33;;;10.77;;
40781;SDS011;26493;51.938;7.626;2022-11-03T15:11:03;19.73;;;10.60;;
40781;SDS011;26493;51.938;7.626;2022-11-03T15:13:31;16.48;;;10.35;;
40781;SDS011;26493;51.938;7.626;2022-11-03T15:15:58;17.90;;;12.13;;
40781;SDS011;26493;51.938;7.626;2022-11-03T15:18:24;16.10;;;9.98;;
40781;SDS011;26493;51.938;7.626;2022-11-03T15:20:50;17.92;;;9.90;;
40781;SDS011;26493;51.938;7.626;2022-11-03T15:23:16;17.75;;;9.90;;
40781;SDS011;26493;51.938;7.626;2022-11-03T15:25:42;16.25;;;10.30;;
40781;SDS011;26493;51.938;7.626;2022-11-03T15:28:08;17.65;;;11.00;;
40781;SDS011;26493;51.938;7.626;2022-11-03T15:30:35;17.00;;;10.85;;
40781;SDS011;26493;51.938;7.626;2022-11-03T15:33:02;15.60;;;10.23;;
40781;SDS011;26493;51.938;7.626;2022-11-03T15:35:28;17.77;;;10.75;;
40781;SDS011;26493;51.938;7.626;2022-11-03T15:37:54;16.92;;;10.30;;
40781;SDS011;26493;51.938;7.626;2022-11-03T15:40:22;16.27;;;10.38;;
40781;SDS011;26493;51.938;7.626;2022-11-03T15:42:48;17.73;;;10.30;;
40781;SDS011;26493;51.938;7.626;2022-11-03T15:45:21;17.80;;;10.80;;
40781;SDS011;26493;51.938;7.626;2022-11-03T15:47:47;20.27;;;10.10;;
40781;SDS011;26493;51.938;7.626;2022-11-03T15:50:13;18.50;;;10.35;;
40781;SDS011;26493;51.938;7.626;2022-11-03T15:52:39;17.33;;;10.93;;
40781;SDS011;26493;51.938;7.626;2022-11-03T15:55:06;16.80;;;10.15;;